Flight Track Log - Related Links

Times and Time Zones

All times are in EDT time to prevent confusion due to time zone crossing. See the AWI3688 flight status page for this flight to view local times or setup timezone preferences in your user account.

Time Position Orientation Groundspeed Altitude Reporting Facility
EDT Latitude Longitude Course Direction KTS MPH feet Rate Location/Type
Wed 03:25:33 PM 42.6964 -73.8072 179° South 168 193 3,000  Level Boston Center
Wed 03:26:34 PM 42.6789 -73.8803 252° West 253 291 6,200 2,692 Climbing Boston Center
Wed 03:26:51 PM 42.6806 -73.9031 276° West 246 283 6,500 2,649 Climbing Boston Center
Wed 03:27:00 PM 42.7334 -74.1959 270° West  Level FlightAware Approximate
Wed 03:27:51 PM 42.6961 -73.9994 282° West 284 327 9,600  Level Boston Center
Wed 03:28:00 PM 42.7218 -74.3230 236° Southwest  Level FlightAware Approximate
Wed 03:28:51 PM 42.7069 -74.1156 277° West 299 344 10,300  Level Boston Center
Wed 03:29:00 PM 42.6491 -74.4095 220° Southwest  Level FlightAware Approximate
Wed 03:29:51 PM 42.6661 -74.1992 236° Southwest 269 310 13,100  Level Boston Center
Wed 03:30:00 PM 42.5748 -74.4941 223° Southwest  Level FlightAware Approximate
Wed 03:30:51 PM 42.6128 -74.2822 229° Southwest 282 325 16,200  Level Boston Center
Wed 03:31:51 PM 42.5656 -74.3597 230° Southwest 293 337 17,900 900 Climbing Boston Center
Wed 03:32:51 PM 42.5056 -74.4511 228° Southwest 298 343 18,000 50 Climbing Boston Center
Wed 03:33:51 PM 42.4561 -74.5281 229° Southwest 305 351 18,000  Level Boston Center
Wed 03:34:51 PM 42.3961 -74.6217 229° Southwest 305 351 18,000  Level Boston Center
Wed 03:35:51 PM 42.3425 -74.7014 228° Southwest 305 351 18,000  Level Boston Center
Wed 03:36:51 PM 42.2864 -74.7975 232° Southwest 315 362 18,000  Level Boston Center
Wed 03:37:51 PM 42.2281 -74.8850 228° Southwest 315 362 18,000  Level Boston Center
Wed 03:39:54 PM 42.0861 -75.0353 218° Southwest 292 336 18,000  Level New York Center
Wed 03:40:54 PM 42.0153 -75.0950 212° Southwest 302 348 18,000  Level New York Center
Wed 03:41:55 PM 41.9511 -75.1464 211° Southwest 312 359 18,000  Level New York Center
Wed 03:42:52 PM 41.8758 -75.2083 212° Southwest 312 359 18,000 -508 Level New York Center
Wed 03:43:53 PM 41.7944 -75.2725 210° Southwest 312 359 17,000 -537 Descending New York Center
Wed 03:44:55 PM 41.7211 -75.3342 212° Southwest 317 365 16,900 -197 Descending New York Center
Wed 03:45:55 PM 41.6431 -75.3594 194° South 299 344 16,600 -1,271 Descending New York Center
Wed 03:46:53 PM 41.5778 -75.3825 195° South 279 321 14,400 -2,168 Descending New York Center
Wed 03:47:54 PM 41.5128 -75.4475 217° Southwest 286 329 12,300 -1,190 Descending New York Center
Wed 03:48:54 PM 41.4433 -75.5172 217° Southwest 291 335 12,000 -149 Descending New York Center
Wed 03:49:55 PM 41.3803 -75.5819 218° Southwest 291 335 12,000  Level New York Center
Wed 03:50:55 PM 41.3217 -75.6386 216° Southwest 291 335 12,000  Level New York Center
Wed 03:51:53 PM 41.2469 -75.6856 205° Southwest 285 328 12,000  Level New York Center
Wed 03:52:54 PM 41.1761 -75.6858 180° South 270 311 12,000  Level New York Center
Wed 03:53:54 PM 41.0925 -75.6881 181° South 281 323 12,000  Level New York Center
Wed 03:54:53 PM 41.0161 -75.6742 172° South 281 323 12,000  Level New York Center
Wed 03:55:53 PM 40.9506 -75.6475 163° South 281 323 12,000  Level New York Center
Wed 03:56:55 PM 40.8767 -75.6175 163° South 276 318 12,000 -148 Level New York Center
Wed 03:57:55 PM 40.7989 -75.5847 162° South 276 318 11,700 -305 Descending New York Center
Wed 03:58:53 PM 40.7272 -75.5522 161° South 271 312 11,400 -403 Descending New York Center
Wed 03:59:54 PM 40.6597 -75.5228 162° South 264 304 10,900 -492 Descending New York Center
Wed 04:00:55 PM 40.5881 -75.4933 163° South 264 304 10,400 -454 Descending New York Center
Wed 04:01:53 PM 40.5142 -75.4608 162° South 269 310 10,000 -202 Descending New York Center
Wed 04:02:54 PM 40.4406 -75.4286 162° South 280 322 10,000 -150 Level New York Center
Wed 04:03:53 PM 40.3692 -75.3911 158° South 280 322 9,700 -850 Descending New York Center
Wed 04:04:54 PM 40.3028 -75.3786 172° South 280 322 8,300 -1,537 Descending New York Center
Wed 04:05:54 PM 40.2311 -75.3439 160° South 259 298 6,600 -1,488 Descending New York Center
Wed 04:06:55 PM 40.1700 -75.3128 159° South 259 298 5,300 -1,311 Descending New York Center
Wed 04:07:53 PM 40.1003 -75.2783 159° South 259 298 4,000 -780 Descending New York Center
Wed 04:08:35 PM 40.0667 -75.2500 147° Southeast 185 213 4,000  Level Philadelphia TRACON
Wed 04:09:35 PM 40.0167 -75.2333 166° South 195 224 4,000  Level Philadelphia TRACON
Wed 04:10:36 PM 39.9667 -75.2000 153° Southeast 196 226 4,000  Level Philadelphia TRACON

Login

Don't have an account? Register now (free) for customized features, flight alerts, and more!